sensor_id;sensor_type;location;lat;lon;timestamp;temperature;humidity
61591;DHT22;71994;52.410;-1.966;2023-08-07T00:01:17;17.40;61.70
61591;DHT22;71994;52.410;-1.966;2023-08-07T00:04:23;17.40;61.80
61591;DHT22;71994;52.410;-1.966;2023-08-07T00:07:29;17.30;61.80
61591;DHT22;71994;52.410;-1.966;2023-08-07T00:10:38;17.30;61.80
61591;DHT22;71994;52.410;-1.966;2023-08-07T00:13:45;17.30;61.70
61591;DHT22;71994;52.410;-1.966;2023-08-07T00:16:51;17.30;61.80
61591;DHT22;71994;52.410;-1.966;2023-08-07T00:19:57;17.30;61.70
61591;DHT22;71994;52.410;-1.966;2023-08-07T00:23:05;17.30;61.70
61591;DHT22;71994;52.410;-1.966;2023-08-07T00:26:14;17.30;61.60
61591;DHT22;71994;52.410;-1.966;2023-08-07T00:29:20;17.30;61.70
61591;DHT22;71994;52.410;-1.966;2023-08-07T00:32:26;17.30;61.60
61591;DHT22;71994;52.410;-1.966;2023-08-07T00:35:33;17.20;61.50
61591;DHT22;71994;52.410;-1.966;2023-08-07T00:38:39;17.20;61.60
61591;DHT22;71994;52.410;-1.966;2023-08-07T00:41:48;17.20;61.70
61591;DHT22;71994;52.410;-1.966;2023-08-07T00:44:54;17.20;61.70
61591;DHT22;71994;52.410;-1.966;2023-08-07T00:48:00;17.20;61.70
61591;DHT22;71994;52.410;-1.966;2023-08-07T00:51:08;17.20;61.50
61591;DHT22;71994;52.410;-1.966;2023-08-07T00:54:16;17.20;61.60
61591;DHT22;71994;52.410;-1.966;2023-08-07T00:57:27;17.10;61.70
61591;DHT22;71994;52.410;-1.966;2023-08-07T01:00:34;17.10;61.40
61591;DHT22;71994;52.410;-1.966;2023-08-07T01:03:42;17.10;61.60
61591;DHT22;71994;52.410;-1.966;2023-08-07T01:06:48;17.10;61.60
61591;DHT22;71994;52.410;-1.966;2023-08-07T01:09:54;17.10;61.60
61591;DHT22;71994;52.410;-1.966;2023-08-07T01:13:21;17.10;61.60
61591;DHT22;71994;52.410;-1.966;2023-08-07T01:16:34;17.10;61.40
61591;DHT22;71994;52.410;-1.966;2023-08-07T01:19:42;17.10;61.50
61591;DHT22;71994;52.410;-1.966;2023-08-07T01:22:51;17.10;61.40
61591;DHT22;71994;52.410;-1.966;2023-08-07T01:25:57;17.10;61.40
61591;DHT22;71994;52.410;-1.966;2023-08-07T01:29:10;17.10;61.20
61591;DHT22;71994;52.410;-1.966;2023-08-07T01:32:22;17.10;61.50
61591;DHT22;71994;52.410;-1.966;2023-08-07T01:35:32;17.10;61.30
61591;DHT22;71994;52.410;-1.966;2023-08-07T01:38:42;17.10;61.30
61591;DHT22;71994;52.410;-1.966;2023-08-07T01:41:50;17.10;61.30
61591;DHT22;71994;52.410;-1.966;2023-08-07T01:44:56;17.10;61.30
61591;DHT22;71994;52.410;-1.966;2023-08-07T01:48:06;17.10;61.30
61591;DHT22;71994;52.410;-1.966;2023-08-07T01:51:12;17.10;61.30
61591;DHT22;71994;52.410;-1.966;2023-08-07T01:54:21;17.10;61.20
61591;DHT22;71994;52.410;-1.966;2023-08-07T01:57:27;17.10;61.20
61591;DHT22;71994;52.410;-1.966;2023-08-07T02:00:34;17.10;61.20
61591;DHT22;71994;52.410;-1.966;2023-08-07T02:03:40;17.10;61.20
61591;DHT22;71994;52.410;-1.966;2023-08-07T02:06:46;17.10;61.20
61591;DHT22;71994;52.410;-1.966;2023-08-07T02:09:55;17.10;61.10
61591;DHT22;71994;52.410;-1.966;2023-08-07T02:13:01;17.10;61.20
61591;DHT22;71994;52.410;-1.966;2023-08-07T02:16:08;17.10;61.10
61591;DHT22;71994;52.410;-1.966;2023-08-07T02:19:14;17.10;61.00
61591;DHT22;71994;52.410;-1.966;2023-08-07T02:22:20;17.10;61.00
61591;DHT22;71994;52.410;-1.966;2023-08-07T02:25:30;17.00;61.00
61591;DHT22;71994;52.410;-1.966;2023-08-07T02:28:36;17.00;61.00
61591;DHT22;71994;52.410;-1.966;2023-08-07T02:31:42;17.00;60.90
61591;DHT22;71994;52.410;-1.966;2023-08-07T02:34:48;17.00;61.00
61591;DHT22;71994;52.410;-1.966;2023-08-07T02:37:55;17.00;61.00
61591;DHT22;71994;52.410;-1.966;2023-08-07T02:41:04;17.00;61.10
61591;DHT22;71994;52.410;-1.966;2023-08-07T02:44:10;17.00;61.00
61591;DHT22;71994;52.410;-1.966;2023-08-07T02:47:17;17.00;60.90
61591;DHT22;71994;52.410;-1.966;2023-08-07T02:50:23;17.00;61.10
61591;DHT22;71994;52.410;-1.966;2023-08-07T02:53:32;17.00;60.90
61591;DHT22;71994;52.410;-1.966;2023-08-07T02:56:41;17.00;60.70
61591;DHT22;71994;52.410;-1.966;2023-08-07T02:59:51;17.00;60.80
61591;DHT22;71994;52.410;-1.966;2023-08-07T03:02:58;17.00;60.70
61591;DHT22;71994;52.410;-1.966;2023-08-07T03:06:04;17.00;60.70
61591;DHT22;71994;52.410;-1.966;2023-08-07T03:09:10;17.00;60.70
61591;DHT22;71994;52.410;-1.966;2023-08-07T03:12:19;17.00;60.70
61591;DHT22;71994;52.410;-1.966;2023-08-07T03:15:26;17.00;60.70
61591;DHT22;71994;52.410;-1.966;2023-08-07T03:18:32;17.00;60.70
61591;DHT22;71994;52.410;-1.966;2023-08-07T03:21:38;17.00;60.70
61591;DHT22;71994;52.410;-1.966;2023-08-07T03:24:46;17.00;60.70
61591;DHT22;71994;52.410;-1.966;2023-08-07T03:27:55;17.00;60.60
61591;DHT22;71994;52.410;-1.966;2023-08-07T03:31:02;16.90;60.60
61591;DHT22;71994;52.410;-1.966;2023-08-07T03:34:08;16.90;60.60
61591;DHT22;71994;52.410;-1.966;2023-08-07T03:37:14;16.90;60.60
61591;DHT22;71994;52.410;-1.966;2023-08-07T03:40:20;16.90;60.60
61591;DHT22;71994;52.410;-1.966;2023-08-07T03:43:29;16.90;60.50
61591;DHT22;71994;52.410;-1.966;2023-08-07T03:46:35;16.90;60.50
61591;DHT22;71994;52.410;-1.966;2023-08-07T03:49:42;16.90;60.50
61591;DHT22;71994;52.410;-1.966;2023-08-07T03:52:48;16.90;60.50
61591;DHT22;71994;52.410;-1.966;2023-08-07T03:55:54;16.90;60.40
61591;DHT22;71994;52.410;-1.966;2023-08-07T03:59:03;16.80;60.40
61591;DHT22;71994;52.410;-1.966;2023-08-07T04:02:09;16.80;60.40
61591;DHT22;71994;52.410;-1.966;2023-08-07T04:05:16;16.90;60.40
61591;DHT22;71994;52.410;-1.966;2023-08-07T04:08:22;16.80;60.50
61591;DHT22;71994;52.410;-1.966;2023-08-07T04:11:29;16.80;60.40
61591;DHT22;71994;52.410;-1.966;2023-08-07T04:14:39;16.80;60.40
61591;DHT22;71994;52.410;-1.966;2023-08-07T04:17:45;16.80;60.30
61591;DHT22;71994;52.410;-1.966;2023-08-07T04:20:53;16.80;60.30
61591;DHT22;71994;52.410;-1.966;2023-08-07T04:23:59;16.80;60.30
61591;DHT22;71994;52.410;-1.966;2023-08-07T04:27:11;16.80;60.30
61591;DHT22;71994;52.410;-1.966;2023-08-07T04:30:20;16.80;60.70
61591;DHT22;71994;52.410;-1.966;2023-08-07T04:33:26;16.80;60.50
61591;DHT22;71994;52.410;-1.966;2023-08-07T04:36:32;16.80;60.30
61591;DHT22;71994;52.410;-1.966;2023-08-07T04:39:39;16.80;60.30
61591;DHT22;71994;52.410;-1.966;2023-08-07T04:42:45;16.80;60.20
61591;DHT22;71994;52.410;-1.966;2023-08-07T04:45:54;16.80;60.10
61591;DHT22;71994;52.410;-1.966;2023-08-07T04:49:00;16.80;60.40
61591;DHT22;71994;52.410;-1.966;2023-08-07T04:52:07;16.80;60.30
61591;DHT22;71994;52.410;-1.966;2023-08-07T04:55:13;16.80;60.30
61591;DHT22;71994;52.410;-1.966;2023-08-07T04:58:20;16.80;60.20
61591;DHT22;71994;52.410;-1.966;2023-08-07T05:01:29;16.80;60.20
61591;DHT22;71994;52.410;-1.966;2023-08-07T05:04:35;16.80;60.20
61591;DHT22;71994;52.410;-1.966;2023-08-07T05:07:41;16.80;60.10
61591;DHT22;71994;52.410;-1.966;2023-08-07T05:10:48;16.80;60.20
61591;DHT22;71994;52.410;-1.966;2023-08-07T05:13:54;16.80;60.10
61591;DHT22;71994;52.410;-1.966;2023-08-07T05:17:04;16.80;60.20
61591;DHT22;71994;52.410;-1.966;2023-08-07T05:20:10;16.70;60.10
61591;DHT22;71994;52.410;-1.966;2023-08-07T05:23:18;16.70;60.20
61591;DHT22;71994;52.410;-1.966;2023-08-07T05:26:27;16.80;60.30
61591;DHT22;71994;52.410;-1.966;2023-08-07T05:29:34;16.70;60.20
61591;DHT22;71994;52.410;-1.966;2023-08-07T05:32:49;16.80;60.10
61591;DHT22;71994;52.410;-1.966;2023-08-07T05:35:55;16.70;60.20
61591;DHT22;71994;52.410;-1.966;2023-08-07T05:39:01;16.80;60.20
61591;DHT22;71994;52.410;-1.966;2023-08-07T05:42:08;16.70;60.20
61591;DHT22;71994;52.410;-1.966;2023-08-07T05:45:15;16.70;60.20
61591;DHT22;71994;52.410;-1.966;2023-08-07T05:48:24;16.70;60.30
61591;DHT22;71994;52.410;-1.966;2023-08-07T05:51:30;16.70;60.20
61591;DHT22;71994;52.410;-1.966;2023-08-07T05:54:37;16.70;60.30
61591;DHT22;71994;52.410;-1.966;2023-08-07T05:57:43;16.80;60.30
61591;DHT22;71994;52.410;-1.966;2023-08-07T06:00:49;16.70;60.30
61591;DHT22;71994;52.410;-1.966;2023-08-07T06:03:58;16.70;60.10
61591;DHT22;71994;52.410;-1.966;2023-08-07T06:07:05;16.70;60.20
61591;DHT22;71994;52.410;-1.966;2023-08-07T06:10:11;16.70;60.20
61591;DHT22;71994;52.410;-1.966;2023-08-07T06:13:18;16.70;60.20
61591;DHT22;71994;52.410;-1.966;2023-08-07T06:16:24;16.70;60.50
61591;DHT22;71994;52.410;-1.966;2023-08-07T06:19:40;16.70;60.30
61591;DHT22;71994;52.410;-1.966;2023-08-07T06:22:49;16.70;60.30
61591;DHT22;71994;52.410;-1.966;2023-08-07T06:25:58;16.70;60.40
61591;DHT22;71994;52.410;-1.966;2023-08-07T06:29:07;16.70;60.40
61591;DHT22;71994;52.410;-1.966;2023-08-07T06:32:15;16.70;60.50
61591;DHT22;71994;52.410;-1.966;2023-08-07T06:35:26;16.70;60.50
61591;DHT22;71994;52.410;-1.966;2023-08-07T06:38:32;16.70;60.50
61591;DHT22;71994;52.410;-1.966;2023-08-07T06:41:38;16.70;60.50
61591;DHT22;71994;52.410;-1.966;2023-08-07T06:44:45;16.70;60.50
61591;DHT22;71994;52.410;-1.966;2023-08-07T06:47:54;16.70;60.50
61591;DHT22;71994;52.410;-1.966;2023-08-07T06:51:06;16.70;60.40
61591;DHT22;71994;52.410;-1.966;2023-08-07T06:54:12;16.70;60.40
61591;DHT22;71994;52.410;-1.966;2023-08-07T06:57:18;16.70;60.40
61591;DHT22;71994;52.410;-1.966;2023-08-07T07:00:25;16.70;60.50
61591;DHT22;71994;52.410;-1.966;2023-08-07T07:03:31;16.70;60.30
61591;DHT22;71994;52.410;-1.966;2023-08-07T07:06:43;16.70;60.30
61591;DHT22;71994;52.410;-1.966;2023-08-07T07:09:49;16.70;60.30
61591;DHT22;71994;52.410;-1.966;2023-08-07T07:12:55;16.70;60.30
61591;DHT22;71994;52.410;-1.966;2023-08-07T07:16:02;16.70;60.30
61591;DHT22;71994;52.410;-1.966;2023-08-07T07:19:08;16.70;60.40
61591;DHT22;71994;52.410;-1.966;2023-08-07T07:22:17;16.70;60.40
61591;DHT22;71994;52.410;-1.966;2023-08-07T07:25:23;16.70;60.40
61591;DHT22;71994;52.410;-1.966;2023-08-07T07:28:30;16.70;60.40
61591;DHT22;71994;52.410;-1.966;2023-08-07T07:31:36;16.70;60.50
61591;DHT22;71994;52.410;-1.966;2023-08-07T07:34:42;16.70;60.50
61591;DHT22;71994;52.410;-1.966;2023-08-07T07:37:52;16.80;60.50
61591;DHT22;71994;52.410;-1.966;2023-08-07T07:40:58;16.70;60.60
61591;DHT22;71994;52.410;-1.966;2023-08-07T07:44:05;16.70;60.60
61591;DHT22;71994;52.410;-1.966;2023-08-07T07:47:13;16.70;60.60
61591;DHT22;71994;52.410;-1.966;2023-08-07T07:50:19;16.70;60.70
61591;DHT22;71994;52.410;-1.966;2023-08-07T07:53:28;16.70;60.70
61591;DHT22;71994;52.410;-1.966;2023-08-07T07:56:35;16.80;60.70
61591;DHT22;71994;52.410;-1.966;2023-08-07T07:59:42;16.70;60.70
61591;DHT22;71994;52.410;-1.966;2023-08-07T08:02:48;16.80;61.00
61591;DHT22;71994;52.410;-1.966;2023-08-07T08:05:54;16.80;61.20
61591;DHT22;71994;52.410;-1.966;2023-08-07T08:09:03;16.80;61.30
61591;DHT22;71994;52.410;-1.966;2023-08-07T08:12:12;16.80;61.30
61591;DHT22;71994;52.410;-1.966;2023-08-07T08:15:19;16.80;61.20
61591;DHT22;71994;52.410;-1.966;2023-08-07T08:18:25;16.80;61.20
61591;DHT22;71994;52.410;-1.966;2023-08-07T08:21:31;16.80;61.30
61591;DHT22;71994;52.410;-1.966;2023-08-07T08:24:40;16.80;61.30
61591;DHT22;71994;52.410;-1.966;2023-08-07T08:27:46;16.80;61.30
61591;DHT22;71994;52.410;-1.966;2023-08-07T08:30:54;16.80;61.30
61591;DHT22;71994;52.410;-1.966;2023-08-07T08:34:00;16.80;61.30
61591;DHT22;71994;52.410;-1.966;2023-08-07T08:37:06;16.90;61.30
61591;DHT22;71994;52.410;-1.966;2023-08-07T08:40:17;16.80;61.20
61591;DHT22;71994;52.410;-1.966;2023-08-07T08:43:24;16.90;61.20
61591;DHT22;71994;52.410;-1.966;2023-08-07T08:46:31;16.90;61.30
61591;DHT22;71994;52.410;-1.966;2023-08-07T08:49:45;16.90;61.20
61591;DHT22;71994;52.410;-1.966;2023-08-07T08:52:53;16.90;61.20
61591;DHT22;71994;52.410;-1.966;2023-08-07T08:56:04;16.90;61.20
61591;DHT22;71994;52.410;-1.966;2023-08-07T08:59:12;16.90;61.20
61591;DHT22;71994;52.410;-1.966;2023-08-07T09:02:21;16.90;61.20
61591;DHT22;71994;52.410;-1.966;2023-08-07T09:05:27;17.00;61.10
61591;DHT22;71994;52.410;-1.966;2023-08-07T09:08:34;17.00;61.20
61591;DHT22;71994;52.410;-1.966;2023-08-07T09:11:44;17.00;61.10
61591;DHT22;71994;52.410;-1.966;2023-08-07T09:14:56;17.00;61.00
61591;DHT22;71994;52.410;-1.966;2023-08-07T09:18:05;17.00;61.10
61591;DHT22;71994;52.410;-1.966;2023-08-07T09:21:12;16.90;61.30
61591;DHT22;71994;52.410;-1.966;2023-08-07T09:24:19;16.90;61.40
61591;DHT22;71994;52.410;-1.966;2023-08-07T09:27:29;16.90;61.60
61591;DHT22;71994;52.410;-1.966;2023-08-07T09:30:36;17.00;61.70
61591;DHT22;71994;52.410;-1.966;2023-08-07T09:33:47;16.90;61.70
61591;DHT22;71994;52.410;-1.966;2023-08-07T09:36:54;17.00;61.70
61591;DHT22;71994;52.410;-1.966;2023-08-07T09:40:02;17.00;61.80
61591;DHT22;71994;52.410;-1.966;2023-08-07T09:43:20;17.00;61.90
61591;DHT22;71994;52.410;-1.966;2023-08-07T09:46:27;17.00;61.90
61591;DHT22;71994;52.410;-1.966;2023-08-07T09:49:40;17.00;61.90
61591;DHT22;71994;52.410;-1.966;2023-08-07T09:52:47;17.10;61.90
61591;DHT22;71994;52.410;-1.966;2023-08-07T09:55:55;17.10;61.90
61591;DHT22;71994;52.410;-1.966;2023-08-07T09:59:04;17.10;61.80
61591;DHT22;71994;52.410;-1.966;2023-08-07T10:02:10;17.20;61.90
61591;DHT22;71994;52.410;-1.966;2023-08-07T10:05:17;17.20;61.90
61591;DHT22;71994;52.410;-1.966;2023-08-07T10:08:24;17.20;61.90
61591;DHT22;71994;52.410;-1.966;2023-08-07T10:11:31;17.20;61.90
61591;DHT22;71994;52.410;-1.966;2023-08-07T10:14:40;17.20;61.80
61591;DHT22;71994;52.410;-1.966;2023-08-07T10:17:47;17.30;61.90
61591;DHT22;71994;52.410;-1.966;2023-08-07T10:20:53;17.30;61.90
61591;DHT22;71994;52.410;-1.966;2023-08-07T10:24:02;17.30;61.90
61591;DHT22;71994;52.410;-1.966;2023-08-07T10:27:11;17.20;62.00
61591;DHT22;71994;52.410;-1.966;2023-08-07T10:30:22;17.20;62.10
61591;DHT22;71994;52.410;-1.966;2023-08-07T10:33:30;17.30;62.20
61591;DHT22;71994;52.410;-1.966;2023-08-07T10:36:37;17.20;62.20
61591;DHT22;71994;52.410;-1.966;2023-08-07T10:40:03;17.30;62.20
61591;DHT22;71994;52.410;-1.966;2023-08-07T10:43:13;17.20;62.20
61591;DHT22;71994;52.410;-1.966;2023-08-07T10:46:25;17.30;62.30
61591;DHT22;71994;52.410;-1.966;2023-08-07T10:49:35;17.30;62.30
61591;DHT22;71994;52.410;-1.966;2023-08-07T10:52:42;17.30;62.30
61591;DHT22;71994;52.410;-1.966;2023-08-07T10:55:48;17.30;62.30
61591;DHT22;71994;52.410;-1.966;2023-08-07T10:58:55;17.30;62.30
61591;DHT22;71994;52.410;-1.966;2023-08-07T11:02:10;17.40;62.20
61591;DHT22;71994;52.410;-1.966;2023-08-07T11:05:18;17.40;62.20
61591;DHT22;71994;52.410;-1.966;2023-08-07T11:08:24;17.40;62.10
61591;DHT22;71994;52.410;-1.966;2023-08-07T11:11:36;17.40;62.10
61591;DHT22;71994;52.410;-1.966;2023-08-07T11:14:43;17.40;62.10
61591;DHT22;71994;52.410;-1.966;2023-08-07T11:17:52;17.40;62.10
61591;DHT22;71994;52.410;-1.966;2023-08-07T11:20:59;17.40;62.10
61591;DHT22;71994;52.410;-1.966;2023-08-07T11:24:05;17.40;62.10
61591;DHT22;71994;52.410;-1.966;2023-08-07T11:27:11;17.40;62.00
61591;DHT22;71994;52.410;-1.966;2023-08-07T11:30:17;17.40;62.00
61591;DHT22;71994;52.410;-1.966;2023-08-07T11:33:27;17.50;62.00
61591;DHT22;71994;52.410;-1.966;2023-08-07T11:36:40;17.50;62.00
61591;DHT22;71994;52.410;-1.966;2023-08-07T11:39:47;17.50;61.90
61591;DHT22;71994;52.410;-1.966;2023-08-07T11:42:53;17.50;61.90
61591;DHT22;71994;52.410;-1.966;2023-08-07T11:46:01;17.50;61.90
61591;DHT22;71994;52.410;-1.966;2023-08-07T11:49:11;17.50;61.90
61591;DHT22;71994;52.410;-1.966;2023-08-07T11:52:18;17.50;61.90
61591;DHT22;71994;52.410;-1.966;2023-08-07T11:55:24;17.50;61.80
61591;DHT22;71994;52.410;-1.966;2023-08-07T11:58:34;17.60;61.80
61591;DHT22;71994;52.410;-1.966;2023-08-07T12:01:41;17.50;61.80
61591;DHT22;71994;52.410;-1.966;2023-08-07T12:04:50;17.50;61.80
61591;DHT22;71994;52.410;-1.966;2023-08-07T12:07:56;17.50;61.90
61591;DHT22;71994;52.410;-1.966;2023-08-07T12:11:03;17.50;61.90
61591;DHT22;71994;52.410;-1.966;2023-08-07T12:14:13;17.50;61.90
61591;DHT22;71994;52.410;-1.966;2023-08-07T12:17:22;17.50;62.00
61591;DHT22;71994;52.410;-1.966;2023-08-07T12:20:32;17.50;62.00
61591;DHT22;71994;52.410;-1.966;2023-08-07T12:23:38;17.50;62.00
61591;DHT22;71994;52.410;-1.966;2023-08-07T12:26:44;17.50;62.10
61591;DHT22;71994;52.410;-1.966;2023-08-07T12:29:50;17.40;62.10
61591;DHT22;71994;52.410;-1.966;2023-08-07T12:32:56;17.50;62.10
61591;DHT22;71994;52.410;-1.966;2023-08-07T12:36:05;17.40;62.10
61591;DHT22;71994;52.410;-1.966;2023-08-07T12:39:13;17.50;62.10
61591;DHT22;71994;52.410;-1.966;2023-08-07T12:42:19;17.50;62.00
61591;DHT22;71994;52.410;-1.966;2023-08-07T12:45:27;17.50;62.40
61591;DHT22;71994;52.410;-1.966;2023-08-07T12:48:35;17.50;62.20
61591;DHT22;71994;52.410;-1.966;2023-08-07T12:51:45;17.50;62.40
61591;DHT22;71994;52.410;-1.966;2023-08-07T12:54:51;17.60;62.60
61591;DHT22;71994;52.410;-1.966;2023-08-07T12:57:57;17.50;62.50
61591;DHT22;71994;52.410;-1.966;2023-08-07T13:01:04;17.60;62.30
61591;DHT22;71994;52.410;-1.966;2023-08-07T13:04:10;17.60;62.20
61591;DHT22;71994;52.410;-1.966;2023-08-07T13:07:21;17.60;62.50
61591;DHT22;71994;52.410;-1.966;2023-08-07T13:10:28;17.50;62.90
61591;DHT22;71994;52.410;-1.966;2023-08-07T13:13:36;17.60;62.80
61591;DHT22;71994;52.410;-1.966;2023-08-07T13:16:42;17.60;62.70
61591;DHT22;71994;52.410;-1.966;2023-08-07T13:19:52;17.60;62.60
61591;DHT22;71994;52.410;-1.966;2023-08-07T13:23:02;17.60;62.60
61591;DHT22;71994;52.410;-1.966;2023-08-07T13:26:09;17.60;62.70
61591;DHT22;71994;52.410;-1.966;2023-08-07T13:29:15;17.60;62.60
61591;DHT22;71994;52.410;-1.966;2023-08-07T13:32:22;17.60;62.50
61591;DHT22;71994;52.410;-1.966;2023-08-07T13:35:28;17.70;62.50
61591;DHT22;71994;52.410;-1.966;2023-08-07T13:38:38;17.70;62.50
61591;DHT22;71994;52.410;-1.966;2023-08-07T13:41:44;17.60;62.40
61591;DHT22;71994;52.410;-1.966;2023-08-07T13:44:53;17.70;62.40
61591;DHT22;71994;52.410;-1.966;2023-08-07T13:48:00;17.70;62.40
61591;DHT22;71994;52.410;-1.966;2023-08-07T13:51:08;17.70;62.40
61591;DHT22;71994;52.410;-1.966;2023-08-07T13:54:17;17.80;62.40
61591;DHT22;71994;52.410;-1.966;2023-08-07T13:57:24;17.70;62.50
61591;DHT22;71994;52.410;-1.966;2023-08-07T14:00:30;17.80;62.50
61591;DHT22;71994;52.410;-1.966;2023-08-07T14:03:37;17.70;62.70
61591;DHT22;71994;52.410;-1.966;2023-08-07T14:06:43;17.80;62.90
61591;DHT22;71994;52.410;-1.966;2023-08-07T14:09:52;17.70;63.20
61591;DHT22;71994;52.410;-1.966;2023-08-07T14:12:59;17.70;63.20
61591;DHT22;71994;52.410;-1.966;2023-08-07T14:16:05;17.70;63.40
61591;DHT22;71994;52.410;-1.966;2023-08-07T14:19:12;17.70;63.50
61591;DHT22;71994;52.410;-1.966;2023-08-07T14:22:18;17.70;63.50
61591;DHT22;71994;52.410;-1.966;2023-08-07T14:25:27;17.70;63.60
61591;DHT22;71994;52.410;-1.966;2023-08-07T14:28:33;17.80;63.60
61591;DHT22;71994;52.410;-1.966;2023-08-07T14:31:39;17.80;63.70
61591;DHT22;71994;52.410;-1.966;2023-08-07T14:34:45;17.80;63.60
61591;DHT22;71994;52.410;-1.966;2023-08-07T14:37:52;17.80;63.60
61591;DHT22;71994;52.410;-1.966;2023-08-07T14:41:01;17.80;63.60
61591;DHT22;71994;52.410;-1.966;2023-08-07T14:44:08;17.80;63.60
61591;DHT22;71994;52.410;-1.966;2023-08-07T14:47:14;17.80;63.60
61591;DHT22;71994;52.410;-1.966;2023-08-07T14:50:20;17.80;63.50
61591;DHT22;71994;52.410;-1.966;2023-08-07T14:53:29;17.80;63.50
61591;DHT22;71994;52.410;-1.966;2023-08-07T14:56:39;17.80;63.50
61591;DHT22;71994;52.410;-1.966;2023-08-07T14:59:45;17.90;63.50
61591;DHT22;71994;52.410;-1.966;2023-08-07T15:02:51;17.90;63.60
61591;DHT22;71994;52.410;-1.966;2023-08-07T15:06:01;17.90;63.70
61591;DHT22;71994;52.410;-1.966;2023-08-07T15:09:08;17.90;63.80
61591;DHT22;71994;52.410;-1.966;2023-08-07T15:12:17;17.90;64.00
61591;DHT22;71994;52.410;-1.966;2023-08-07T15:15:24;17.90;63.90
61591;DHT22;71994;52.410;-1.966;2023-08-07T15:18:30;18.00;63.80
61591;DHT22;71994;52.410;-1.966;2023-08-07T15:21:36;18.00;63.70
61591;DHT22;71994;52.410;-1.966;2023-08-07T15:24:42;18.00;63.60
61591;DHT22;71994;52.410;-1.966;2023-08-07T15:27:51;18.00;63.80
61591;DHT22;71994;52.410;-1.966;2023-08-07T15:30:58;18.00;63.90
61591;DHT22;71994;52.410;-1.966;2023-08-07T15:34:04;18.00;64.10
61591;DHT22;71994;52.410;-1.966;2023-08-07T15:37:14;18.00;64.00
61591;DHT22;71994;52.410;-1.966;2023-08-07T15:40:20;18.00;64.10
61591;DHT22;71994;52.410;-1.966;2023-08-07T15:43:29;18.00;64.20
61591;DHT22;71994;52.410;-1.966;2023-08-07T15:46:35;18.00;64.30
61591;DHT22;71994;52.410;-1.966;2023-08-07T15:49:43;18.00;64.20
61591;DHT22;71994;52.410;-1.966;2023-08-07T15:52:51;18.00;64.10
61591;DHT22;71994;52.410;-1.966;2023-08-07T15:55:57;18.10;64.20
61591;DHT22;71994;52.410;-1.966;2023-08-07T15:59:06;18.10;64.20
61591;DHT22;71994;52.410;-1.966;2023-08-07T16:02:12;18.10;64.30
61591;DHT22;71994;52.410;-1.966;2023-08-07T16:05:19;18.10;64.20
61591;DHT22;71994;52.410;-1.966;2023-08-07T16:08:25;18.10;64.40
61591;DHT22;71994;52.410;-1.966;2023-08-07T16:11:31;18.10;64.20
61591;DHT22;71994;52.410;-1.966;2023-08-07T16:14:40;18.10;64.10
61591;DHT22;71994;52.410;-1.966;2023-08-07T16:17:48;18.10;64.00
61591;DHT22;71994;52.410;-1.966;2023-08-07T16:20:56;18.10;64.00
61591;DHT22;71994;52.410;-1.966;2023-08-07T16:24:03;18.10;64.00
61591;DHT22;71994;52.410;-1.966;2023-08-07T16:27:09;18.10;64.00
61591;DHT22;71994;52.410;-1.966;2023-08-07T16:30:19;18.20;63.70
61591;DHT22;71994;52.410;-1.966;2023-08-07T16:33:25;18.10;63.80
61591;DHT22;71994;52.410;-1.966;2023-08-07T16:36:34;18.10;63.90
61591;DHT22;71994;52.410;-1.966;2023-08-07T16:39:40;18.10;64.00
61591;DHT22;71994;52.410;-1.966;2023-08-07T16:42:48;18.10;64.00
61591;DHT22;71994;52.410;-1.966;2023-08-07T16:45:57;18.10;64.10
61591;DHT22;71994;52.410;-1.966;2023-08-07T16:49:03;18.10;64.30
61591;DHT22;71994;52.410;-1.966;2023-08-07T16:52:10;18.10;64.30
61591;DHT22;71994;52.410;-1.966;2023-08-07T16:55:16;18.10;64.30
61591;DHT22;71994;52.410;-1.966;2023-08-07T16:58:22;18.10;64.30
61591;DHT22;71994;52.410;-1.966;2023-08-07T17:01:32;18.10;64.40
61591;DHT22;71994;52.410;-1.966;2023-08-07T17:04:41;18.10;64.30
61591;DHT22;71994;52.410;-1.966;2023-08-07T17:07:47;18.10;64.30
61591;DHT22;71994;52.410;-1.966;2023-08-07T17:10:53;18.10;64.30
61591;DHT22;71994;52.410;-1.966;2023-08-07T17:13:59;18.10;64.20
61591;DHT22;71994;52.410;-1.966;2023-08-07T17:17:09;18.10;64.20
61591;DHT22;71994;52.410;-1.966;2023-08-07T17:20:15;18.10;64.10
61591;DHT22;71994;52.410;-1.966;2023-08-07T17:23:21;18.10;64.00
61591;DHT22;71994;52.410;-1.966;2023-08-07T17:26:27;18.10;64.00
61591;DHT22;71994;52.410;-1.966;2023-08-07T17:29:34;18.10;63.90
61591;DHT22;71994;52.410;-1.966;2023-08-07T17:32:43;18.10;63.90
61591;DHT22;71994;52.410;-1.966;2023-08-07T17:35:52;18.10;63.90
61591;DHT22;71994;52.410;-1.966;2023-08-07T17:38:58;18.10;63.80
61591;DHT22;71994;52.410;-1.966;2023-08-07T17:42:05;18.10;63.80
61591;DHT22;71994;52.410;-1.966;2023-08-07T17:45:12;18.10;63.80
61591;DHT22;71994;52.410;-1.966;2023-08-07T17:48:23;18.10;63.70
61591;DHT22;71994;52.410;-1.966;2023-08-07T17:51:34;18.10;63.60
61591;DHT22;71994;52.410;-1.966;2023-08-07T17:54:43;18.10;63.70
61591;DHT22;71994;52.410;-1.966;2023-08-07T17:57:53;18.10;63.70
61591;DHT22;71994;52.410;-1.966;2023-08-07T18:00:59;18.10;63.70
61591;DHT22;71994;52.410;-1.966;2023-08-07T18:04:12;18.10;63.90
61591;DHT22;71994;52.410;-1.966;2023-08-07T18:07:18;18.10;63.90
61591;DHT22;71994;52.410;-1.966;2023-08-07T18:10:27;18.10;64.00
61591;DHT22;71994;52.410;-1.966;2023-08-07T18:13:36;18.10;63.80
61591;DHT22;71994;52.410;-1.966;2023-08-07T18:16:43;18.10;63.80
61591;DHT22;71994;52.410;-1.966;2023-08-07T18:19:55;18.10;63.80
61591;DHT22;71994;52.410;-1.966;2023-08-07T18:23:06;18.10;63.80
61591;DHT22;71994;52.410;-1.966;2023-08-07T18:26:12;18.10;63.90
61591;DHT22;71994;52.410;-1.966;2023-08-07T18:29:21;18.10;63.90
61591;DHT22;71994;52.410;-1.966;2023-08-07T18:32:27;18.20;64.30
61591;DHT22;71994;52.410;-1.966;2023-08-07T18:35:43;18.20;65.20
61591;DHT22;71994;52.410;-1.966;2023-08-07T18:38:52;18.20;65.50
61591;DHT22;71994;52.410;-1.966;2023-08-07T18:41:58;18.20;65.40
61591;DHT22;71994;52.410;-1.966;2023-08-07T18:45:08;18.20;65.40
61591;DHT22;71994;52.410;-1.966;2023-08-07T18:48:17;18.20;65.40
61591;DHT22;71994;52.410;-1.966;2023-08-07T18:51:29;18.20;65.30
61591;DHT22;71994;52.410;-1.966;2023-08-07T18:54:38;18.30;65.20
61591;DHT22;71994;52.410;-1.966;2023-08-07T18:57:54;18.20;65.20
61591;DHT22;71994;52.410;-1.966;2023-08-07T19:01:03;18.20;65.10
61591;DHT22;71994;52.410;-1.966;2023-08-07T19:04:13;18.20;65.30
61591;DHT22;71994;52.410;-1.966;2023-08-07T19:07:22;18.20;65.20
61591;DHT22;71994;52.410;-1.966;2023-08-07T19:10:28;18.20;65.20
61591;DHT22;71994;52.410;-1.966;2023-08-07T19:13:40;18.20;65.20
61591;DHT22;71994;52.410;-1.966;2023-08-07T19:16:47;18.20;65.20
61591;DHT22;71994;52.410;-1.966;2023-08-07T19:19:53;18.20;65.20
61591;DHT22;71994;52.410;-1.966;2023-08-07T19:23:02;18.20;65.10
61591;DHT22;71994;52.410;-1.966;2023-08-07T19:26:09;18.20;65.10